sensor_id;sensor_type;location;lat;lon;timestamp;temperature;humidity
61374;DHT22;47242;48.158;-1.586;2024-01-25T05:31:03;12.00;88.30
61374;DHT22;47242;48.158;-1.586;2024-01-25T05:33:28;12.00;88.30
61374;DHT22;47242;48.158;-1.586;2024-01-25T05:35:54;12.10;88.40
61374;DHT22;47242;48.158;-1.586;2024-01-25T05:38:20;12.10;88.50
61374;DHT22;47242;48.158;-1.586;2024-01-25T05:40:45;12.20;88.40
61374;DHT22;47242;48.158;-1.586;2024-01-25T05:43:11;12.20;88.20
61374;DHT22;47242;48.158;-1.586;2024-01-25T05:45:36;12.10;88.40
61374;DHT22;47242;48.158;-1.586;2024-01-25T05:48:02;12.10;88.30
61374;DHT22;47242;48.158;-1.586;2024-01-25T05:50:28;12.10;88.40
61374;DHT22;47242;48.158;-1.586;2024-01-25T05:52:54;12.10;88.40
61374;DHT22;47242;48.158;-1.586;2024-01-25T05:55:19;12.20;88.40
61374;DHT22;47242;48.158;-1.586;2024-01-25T05:57:45;12.20;88.30
61374;DHT22;47242;48.158;-1.586;2024-01-25T06:00:12;12.20;88.40
61374;DHT22;47242;48.158;-1.586;2024-01-25T06:02:38;12.20;88.20
61374;DHT22;47242;48.158;-1.586;2024-01-25T06:05:04;12.20;88.30
61374;DHT22;47242;48.158;-1.586;2024-01-25T06:07:30;12.20;88.30
61374;DHT22;47242;48.158;-1.586;2024-01-25T06:09:56;12.20;88.30
61374;DHT22;47242;48.158;-1.586;2024-01-25T06:12:24;12.20;88.30
61374;DHT22;47242;48.158;-1.586;2024-01-25T06:14:50;12.20;88.30
61374;DHT22;47242;48.158;-1.586;2024-01-25T06:17:17;12.20;88.20
61374;DHT22;47242;48.158;-1.586;2024-01-25T06:19:43;12.20;88.30
61374;DHT22;47242;48.158;-1.586;2024-01-25T06:22:09;12.10;88.20
61374;DHT22;47242;48.158;-1.586;2024-01-25T06:24:34;12.10;88.30
61374;DHT22;47242;48.158;-1.586;2024-01-25T06:27:00;12.10;88.40
61374;DHT22;47242;48.158;-1.586;2024-01-25T06:29:26;12.10;88.40
61374;DHT22;47242;48.158;-1.586;2024-01-25T06:31:51;12.10;88.40
61374;DHT22;47242;48.158;-1.586;2024-01-25T06:34:17;12.10;88.40
61374;DHT22;47242;48.158;-1.586;2024-01-25T06:36:42;12.10;88.50
61374;DHT22;47242;48.158;-1.586;2024-01-25T06:39:08;12.00;88.70
61374;DHT22;47242;48.158;-1.586;2024-01-25T06:41:34;11.90;88.70
61374;DHT22;47242;48.158;-1.586;2024-01-25T06:43:59;12.00;88.90
61374;DHT22;47242;48.158;-1.586;2024-01-25T06:46:25;12.00;88.90
61374;DHT22;47242;48.158;-1.586;2024-01-25T06:48:51;12.00;88.70
61374;DHT22;47242;48.158;-1.586;2024-01-25T06:51:17;11.90;88.80
61374;DHT22;47242;48.158;-1.586;2024-01-25T06:53:43;11.80;88.90
61374;DHT22;47242;48.158;-1.586;2024-01-25T06:56:08;11.80;89.10
61374;DHT22;47242;48.158;-1.586;2024-01-25T06:58:34;11.80;89.10
61374;DHT22;47242;48.158;-1.586;2024-01-25T07:01:00;11.90;89.10
61374;DHT22;47242;48.158;-1.586;2024-01-25T07:03:25;11.90;89.00
61374;DHT22;47242;48.158;-1.586;2024-01-25T07:05:51;11.90;89.10
61374;DHT22;47242;48.158;-1.586;2024-01-25T07:08:17;11.90;89.20
61374;DHT22;47242;48.158;-1.586;2024-01-25T07:10:44;11.90;89.10
61374;DHT22;47242;48.158;-1.586;2024-01-25T07:13:09;11.90;89.40
61374;DHT22;47242;48.158;-1.586;2024-01-25T07:15:35;11.90;89.20
61374;DHT22;47242;48.158;-1.586;2024-01-25T07:18:01;12.00;89.20
61374;DHT22;47242;48.158;-1.586;2024-01-25T07:20:26;12.00;89.00
61374;DHT22;47242;48.158;-1.586;2024-01-25T07:22:52;12.20;89.00
61374;DHT22;47242;48.158;-1.586;2024-01-25T07:25:18;12.20;88.90
61374;DHT22;47242;48.158;-1.586;2024-01-25T07:27:45;12.10;88.90
61374;DHT22;47242;48.158;-1.586;2024-01-25T07:30:11;12.10;89.00
61374;DHT22;47242;48.158;-1.586;2024-01-25T07:32:38;12.10;89.10
61374;DHT22;47242;48.158;-1.586;2024-01-25T07:35:07;12.20;89.00
61374;DHT22;47242;48.158;-1.586;2024-01-25T07:37:33;12.20;89.00
61374;DHT22;47242;48.158;-1.586;2024-01-25T07:39:59;12.20;88.90
61374;DHT22;47242;48.158;-1.586;2024-01-25T07:42:25;12.20;88.90
61374;DHT22;47242;48.158;-1.586;2024-01-25T07:44:50;12.10;88.90
61374;DHT22;47242;48.158;-1.586;2024-01-25T07:47:16;12.20;89.00
61374;DHT22;47242;48.158;-1.586;2024-01-25T07:49:41;12.10;89.00
61374;DHT22;47242;48.158;-1.586;2024-01-25T07:52:07;12.20;89.00
61374;DHT22;47242;48.158;-1.586;2024-01-25T07:54:32;12.10;89.10
61374;DHT22;47242;48.158;-1.586;2024-01-25T07:56:58;12.00;89.10
61374;DHT22;47242;48.158;-1.586;2024-01-25T07:59:24;12.00;89.30
61374;DHT22;47242;48.158;-1.586;2024-01-25T08:01:49;12.00;89.30
61374;DHT22;47242;48.158;-1.586;2024-01-25T08:04:15;12.00;89.50
61374;DHT22;47242;48.158;-1.586;2024-01-25T08:06:40;12.00;89.60
61374;DHT22;47242;48.158;-1.586;2024-01-25T08:09:06;12.00;89.60
61374;DHT22;47242;48.158;-1.586;2024-01-25T08:11:34;12.00;89.50
61374;DHT22;47242;48.158;-1.586;2024-01-25T08:14:00;12.00;89.50
61374;DHT22;47242;48.158;-1.586;2024-01-25T08:16:25;12.00;89.60
61374;DHT22;47242;48.158;-1.586;2024-01-25T08:18:51;12.10;89.50
61374;DHT22;47242;48.158;-1.586;2024-01-25T08:21:17;12.10;89.70
61374;DHT22;47242;48.158;-1.586;2024-01-25T08:23:43;12.10;89.70
61374;DHT22;47242;48.158;-1.586;2024-01-25T08:26:08;12.10;89.70
61374;DHT22;47242;48.158;-1.586;2024-01-25T08:28:41;12.10;89.60
61374;DHT22;47242;48.158;-1.586;2024-01-25T08:31:09;12.10;89.70
61374;DHT22;47242;48.158;-1.586;2024-01-25T08:33:35;12.10;89.80
61374;DHT22;47242;48.158;-1.586;2024-01-25T08:36:01;12.10;89.80
61374;DHT22;47242;48.158;-1.586;2024-01-25T08:38:27;12.10;89.80
61374;DHT22;47242;48.158;-1.586;2024-01-25T08:40:53;12.20;89.80
61374;DHT22;47242;48.158;-1.586;2024-01-25T08:43:19;12.20;89.80
61374;DHT22;47242;48.158;-1.586;2024-01-25T08:45:45;12.10;89.90
61374;DHT22;47242;48.158;-1.586;2024-01-25T08:48:10;12.20;89.90
61374;DHT22;47242;48.158;-1.586;2024-01-25T08:50:36;12.20;89.80
61374;DHT22;47242;48.158;-1.586;2024-01-25T08:53:02;12.10;90.00
61374;DHT22;47242;48.158;-1.586;2024-01-25T08:55:27;12.10;90.00
61374;DHT22;47242;48.158;-1.586;2024-01-25T08:57:53;12.10;90.10
61374;DHT22;47242;48.158;-1.586;2024-01-25T09:00:19;12.10;90.30
61374;DHT22;47242;48.158;-1.586;2024-01-25T09:02:45;12.20;90.00
61374;DHT22;47242;48.158;-1.586;2024-01-25T09:05:11;12.20;90.00
61374;DHT22;47242;48.158;-1.586;2024-01-25T09:07:37;12.20;89.90
61374;DHT22;47242;48.158;-1.586;2024-01-25T09:10:03;12.20;89.90
61374;DHT22;47242;48.158;-1.586;2024-01-25T09:12:32;12.30;89.90
61374;DHT22;47242;48.158;-1.586;2024-01-25T09:14:57;12.30;89.90
61374;DHT22;47242;48.158;-1.586;2024-01-25T09:17:23;12.30;89.80
61374;DHT22;47242;48.158;-1.586;2024-01-25T09:19:50;12.30;89.70
61374;DHT22;47242;48.158;-1.586;2024-01-25T09:22:17;12.30;89.80
61374;DHT22;47242;48.158;-1.586;2024-01-25T09:24:47;12.30;89.60
61374;DHT22;47242;48.158;-1.586;2024-01-25T09:27:13;12.30;89.60
61374;DHT22;47242;48.158;-1.586;2024-01-25T09:29:40;12.30;89.30
61374;DHT22;47242;48.158;-1.586;2024-01-25T09:32:07;12.30;89.60
61374;DHT22;47242;48.158;-1.586;2024-01-25T09:34:37;12.30;89.60
61374;DHT22;47242;48.158;-1.586;2024-01-25T09:37:03;12.30;89.60
61374;DHT22;47242;48.158;-1.586;2024-01-25T09:39:29;12.30;89.50
61374;DHT22;47242;48.158;-1.586;2024-01-25T09:41:55;12.30;89.60
61374;DHT22;47242;48.158;-1.586;2024-01-25T09:44:21;12.30;89.20
61374;DHT22;47242;48.158;-1.586;2024-01-25T09:46:46;12.30;89.10
61374;DHT22;47242;48.158;-1.586;2024-01-25T09:49:12;12.30;88.90
61374;DHT22;47242;48.158;-1.586;2024-01-25T09:51:40;12.30;88.90
61374;DHT22;47242;48.158;-1.586;2024-01-25T09:54:07;12.30;88.90
61374;DHT22;47242;48.158;-1.586;2024-01-25T09:56:33;12.30;88.90
61374;DHT22;47242;48.158;-1.586;2024-01-25T09:59:00;12.30;88.70
61374;DHT22;47242;48.158;-1.586;2024-01-25T10:01:26;12.30;88.60
61374;DHT22;47242;48.158;-1.586;2024-01-25T10:03:52;12.30;88.60
61374;DHT22;47242;48.158;-1.586;2024-01-25T10:06:18;12.30;88.60
61374;DHT22;47242;48.158;-1.586;2024-01-25T10:08:44;12.40;88.50
61374;DHT22;47242;48.158;-1.586;2024-01-25T10:11:10;12.40;88.60
61374;DHT22;47242;48.158;-1.586;2024-01-25T10:13:49;12.40;88.40
61374;DHT22;47242;48.158;-1.586;2024-01-25T10:16:19;12.40;88.40
61374;DHT22;47242;48.158;-1.586;2024-01-25T10:18:49;12.40;88.40
61374;DHT22;47242;48.158;-1.586;2024-01-25T10:21:15;12.50;88.40
61374;DHT22;47242;48.158;-1.586;2024-01-25T10:23:44;12.50;88.10
61374;DHT22;47242;48.158;-1.586;2024-01-25T10:26:13;12.60;88.30
61374;DHT22;47242;48.158;-1.586;2024-01-25T10:28:39;12.60;88.10
61374;DHT22;47242;48.158;-1.586;2024-01-25T10:31:05;12.60;87.80
61374;DHT22;47242;48.158;-1.586;2024-01-25T10:33:31;12.80;88.00
61374;DHT22;47242;48.158;-1.586;2024-01-25T10:35:58;12.80;87.70
61374;DHT22;47242;48.158;-1.586;2024-01-25T10:38:35;12.80;87.60
61374;DHT22;47242;48.158;-1.586;2024-01-25T10:41:04;13.00;87.60
61374;DHT22;47242;48.158;-1.586;2024-01-25T10:43:30;13.00;87.40
61374;DHT22;47242;48.158;-1.586;2024-01-25T10:45:56;13.00;87.50
61374;DHT22;47242;48.158;-1.586;2024-01-25T10:48:24;13.00;87.40
61374;DHT22;47242;48.158;-1.586;2024-01-25T10:50:50;13.00;87.60
61374;DHT22;47242;48.158;-1.586;2024-01-25T10:53:16;13.00;87.70
61374;DHT22;47242;48.158;-1.586;2024-01-25T10:55:42;13.00;87.60
61374;DHT22;47242;48.158;-1.586;2024-01-25T10:58:08;13.00;88.00
61374;DHT22;47242;48.158;-1.586;2024-01-25T11:00:35;13.00;88.30
61374;DHT22;47242;48.158;-1.586;2024-01-25T11:03:01;12.90;88.50
61374;DHT22;47242;48.158;-1.586;2024-01-25T11:05:26;12.90;88.80
61374;DHT22;47242;48.158;-1.586;2024-01-25T11:07:52;12.90;88.90
61374;DHT22;47242;48.158;-1.586;2024-01-25T11:12:57;12.90;89.10
61374;DHT22;47242;48.158;-1.586;2024-01-25T11:15:33;13.00;89.10
61374;DHT22;47242;48.158;-1.586;2024-01-25T11:18:00;13.00;89.00
61374;DHT22;47242;48.158;-1.586;2024-01-25T11:20:28;13.10;89.00
61374;DHT22;47242;48.158;-1.586;2024-01-25T11:23:05;13.10;88.80
61374;DHT22;47242;48.158;-1.586;2024-01-25T11:25:32;13.00;89.00
61374;DHT22;47242;48.158;-1.586;2024-01-25T11:28:01;13.20;89.00
61374;DHT22;47242;48.158;-1.586;2024-01-25T11:30:29;13.20;88.90
61374;DHT22;47242;48.158;-1.586;2024-01-25T11:32:55;13.20;89.00
61374;DHT22;47242;48.158;-1.586;2024-01-25T11:35:21;13.20;88.80
61374;DHT22;47242;48.158;-1.586;2024-01-25T11:37:48;13.30;88.60
61374;DHT22;47242;48.158;-1.586;2024-01-25T11:40:15;13.20;88.60
61374;DHT22;47242;48.158;-1.586;2024-01-25T11:42:42;13.20;88.80
61374;DHT22;47242;48.158;-1.586;2024-01-25T11:45:10;13.20;88.90
61374;DHT22;47242;48.158;-1.586;2024-01-25T11:47:37;13.20;89.00
61374;DHT22;47242;48.158;-1.586;2024-01-25T11:50:04;13.20;89.00
61374;DHT22;47242;48.158;-1.586;2024-01-25T11:52:31;13.20;89.10
61374;DHT22;47242;48.158;-1.586;2024-01-25T11:55:06;13.30;89.00
61374;DHT22;47242;48.158;-1.586;2024-01-25T11:57:35;13.30;88.80
61374;DHT22;47242;48.158;-1.586;2024-01-25T12:00:02;13.30;88.70
61374;DHT22;47242;48.158;-1.586;2024-01-25T12:02:29;13.40;88.70
61374;DHT22;47242;48.158;-1.586;2024-01-25T12:04:56;13.40;88.50
61374;DHT22;47242;48.158;-1.586;2024-01-25T12:07:22;13.40;88.60
61374;DHT22;47242;48.158;-1.586;2024-01-25T12:10:05;13.40;88.80
61374;DHT22;47242;48.158;-1.586;2024-01-25T12:12:31;13.40;88.50
61374;DHT22;47242;48.158;-1.586;2024-01-25T12:15:01;13.40;88.80
61374;DHT22;47242;48.158;-1.586;2024-01-25T12:17:30;13.40;88.70
61374;DHT22;47242;48.158;-1.586;2024-01-25T12:19:59;13.40;88.70
61374;DHT22;47242;48.158;-1.586;2024-01-25T12:22:28;13.40;88.80
61374;DHT22;47242;48.158;-1.586;2024-01-25T12:24:55;13.50;88.70
61374;DHT22;47242;48.158;-1.586;2024-01-25T12:27:22;13.50;88.80
61374;DHT22;47242;48.158;-1.586;2024-01-25T12:29:51;13.50;88.80
61374;DHT22;47242;48.158;-1.586;2024-01-25T12:32:17;13.60;88.70
61374;DHT22;47242;48.158;-1.586;2024-01-25T12:34:55;13.50;88.60
61374;DHT22;47242;48.158;-1.586;2024-01-25T12:37:21;13.50;88.70
61374;DHT22;47242;48.158;-1.586;2024-01-25T12:39:47;13.60;88.60
61374;DHT22;47242;48.158;-1.586;2024-01-25T12:42:13;13.60;88.60
61374;DHT22;47242;48.158;-1.586;2024-01-25T12:44:39;13.60;88.40
61374;DHT22;47242;48.158;-1.586;2024-01-25T12:47:05;13.60;88.50
61374;DHT22;47242;48.158;-1.586;2024-01-25T12:49:33;13.60;88.60
61374;DHT22;47242;48.158;-1.586;2024-01-25T12:51:59;13.70;88.60
61374;DHT22;47242;48.158;-1.586;2024-01-25T12:54:25;13.70;88.60
61374;DHT22;47242;48.158;-1.586;2024-01-25T12:56:51;13.70;88.60
61374;DHT22;47242;48.158;-1.586;2024-01-25T12:59:17;13.80;88.30
61374;DHT22;47242;48.158;-1.586;2024-01-25T13:01:43;13.90;88.20
61374;DHT22;47242;48.158;-1.586;2024-01-25T13:04:08;14.00;88.00
61374;DHT22;47242;48.158;-1.586;2024-01-25T13:06:34;14.00;88.10
61374;DHT22;47242;48.158;-1.586;2024-01-25T13:08:59;14.10;88.00
61374;DHT22;47242;48.158;-1.586;2024-01-25T13:11:25;14.10;87.90
61374;DHT22;47242;48.158;-1.586;2024-01-25T13:13:51;14.20;87.90
61374;DHT22;47242;48.158;-1.586;2024-01-25T13:16:17;14.20;87.80
61374;DHT22;47242;48.158;-1.586;2024-01-25T13:18:42;14.20;87.60
61374;DHT22;47242;48.158;-1.586;2024-01-25T13:21:09;14.10;87.50
61374;DHT22;47242;48.158;-1.586;2024-01-25T13:23:34;14.10;87.70
61374;DHT22;47242;48.158;-1.586;2024-01-25T13:26:00;14.10;87.70
61374;DHT22;47242;48.158;-1.586;2024-01-25T13:28:25;14.20;87.80
61374;DHT22;47242;48.158;-1.586;2024-01-25T13:30:51;14.20;87.70
61374;DHT22;47242;48.158;-1.586;2024-01-25T13:33:19;14.20;87.70
61374;DHT22;47242;48.158;-1.586;2024-01-25T13:35:45;14.30;87.40
61374;DHT22;47242;48.158;-1.586;2024-01-25T13:38:11;14.30;87.30
61374;DHT22;47242;48.158;-1.586;2024-01-25T13:40:40;14.30;87.40
61374;DHT22;47242;48.158;-1.586;2024-01-25T13:43:06;14.40;87.40
61374;DHT22;47242;48.158;-1.586;2024-01-25T13:45:31;14.40;87.30
61374;DHT22;47242;48.158;-1.586;2024-01-25T13:47:57;14.40;87.30
61374;DHT22;47242;48.158;-1.586;2024-01-25T13:50:22;14.40;87.30
61374;DHT22;47242;48.158;-1.586;2024-01-25T13:52:48;14.50;87.30
61374;DHT22;47242;48.158;-1.586;2024-01-25T13:55:14;14.50;87.30
61374;DHT22;47242;48.158;-1.586;2024-01-25T13:57:39;14.50;87.20
61374;DHT22;47242;48.158;-1.586;2024-01-25T14:00:05;14.50;87.20
61374;DHT22;47242;48.158;-1.586;2024-01-25T14:02:32;14.60;87.10
61374;DHT22;47242;48.158;-1.586;2024-01-25T14:04:58;14.60;87.30
61374;DHT22;47242;48.158;-1.586;2024-01-25T14:07:23;14.60;87.10
61374;DHT22;47242;48.158;-1.586;2024-01-25T14:09:49;14.60;86.90
61374;DHT22;47242;48.158;-1.586;2024-01-25T14:12:15;14.70;86.90
61374;DHT22;47242;48.158;-1.586;2024-01-25T14:14:41;14.70;86.80
61374;DHT22;47242;48.158;-1.586;2024-01-25T14:17:07;14.80;86.80
61374;DHT22;47242;48.158;-1.586;2024-01-25T14:19:32;14.80;86.70
61374;DHT22;47242;48.158;-1.586;2024-01-25T14:21:58;14.80;86.60
61374;DHT22;47242;48.158;-1.586;2024-01-25T14:24:24;14.80;86.50
61374;DHT22;47242;48.158;-1.586;2024-01-25T14:26:49;14.80;86.50
61374;DHT22;47242;48.158;-1.586;2024-01-25T14:29:15;14.80;86.50
61374;DHT22;47242;48.158;-1.586;2024-01-25T14:31:40;14.80;86.40
61374;DHT22;47242;48.158;-1.586;2024-01-25T14:34:07;14.90;86.40
61374;DHT22;47242;48.158;-1.586;2024-01-25T14:36:34;14.90;86.30
61374;DHT22;47242;48.158;-1.586;2024-01-25T14:39:00;14.90;86.10
61374;DHT22;47242;48.158;-1.586;2024-01-25T14:41:26;15.00;86.00
61374;DHT22;47242;48.158;-1.586;2024-01-25T14:43:52;14.90;85.90
61374;DHT22;47242;48.158;-1.586;2024-01-25T14:46:18;14.90;86.20
61374;DHT22;47242;48.158;-1.586;2024-01-25T14:48:43;14.80;86.30
61374;DHT22;47242;48.158;-1.586;2024-01-25T14:51:09;14.80;86.30
61374;DHT22;47242;48.158;-1.586;2024-01-25T14:53:34;14.70;86.40
61374;DHT22;47242;48.158;-1.586;2024-01-25T14:56:00;14.70;86.40
61374;DHT22;47242;48.158;-1.586;2024-01-25T14:58:26;14.70;86.10
61374;DHT22;47242;48.158;-1.586;2024-01-25T15:00:53;14.70;86.20
61374;DHT22;47242;48.158;-1.586;2024-01-25T15:03:19;14.60;86.10
61374;DHT22;47242;48.158;-1.586;2024-01-25T15:05:44;14.60;86.30
61374;DHT22;47242;48.158;-1.586;2024-01-25T15:08:11;14.50;86.40
61374;DHT22;47242;48.158;-1.586;2024-01-25T15:10:36;14.50;86.60
61374;DHT22;47242;48.158;-1.586;2024-01-25T15:13:02;14.50;86.60
61374;DHT22;47242;48.158;-1.586;2024-01-25T15:15:28;14.40;86.60
61374;DHT22;47242;48.158;-1.586;2024-01-25T15:17:54;14.40;86.70
61374;DHT22;47242;48.158;-1.586;2024-01-25T15:20:23;14.50;86.70
61374;DHT22;47242;48.158;-1.586;2024-01-25T15:22:50;14.50;86.60
61374;DHT22;47242;48.158;-1.586;2024-01-25T15:25:16;14.50;86.50
61374;DHT22;47242;48.158;-1.586;2024-01-25T15:27:42;14.50;86.50
61374;DHT22;47242;48.158;-1.586;2024-01-25T15:30:09;14.60;86.50
61374;DHT22;47242;48.158;-1.586;2024-01-25T15:32:36;14.50;86.20
61374;DHT22;47242;48.158;-1.586;2024-01-25T15:35:03;14.50;86.40
61374;DHT22;47242;48.158;-1.586;2024-01-25T15:37:29;14.60;86.30
61374;DHT22;47242;48.158;-1.586;2024-01-25T15:39:54;14.50;86.20
61374;DHT22;47242;48.158;-1.586;2024-01-25T15:42:20;14.50;86.30
61374;DHT22;47242;48.158;-1.586;2024-01-25T15:44:45;14.50;86.40
61374;DHT22;47242;48.158;-1.586;2024-01-25T15:47:11;14.50;86.50
61374;DHT22;47242;48.158;-1.586;2024-01-25T15:49:38;14.60;86.30
61374;DHT22;47242;48.158;-1.586;2024-01-25T15:52:04;14.50;86.40
61374;DHT22;47242;48.158;-1.586;2024-01-25T15:54:30;14.50;86.50
61374;DHT22;47242;48.158;-1.586;2024-01-25T15:56:56;14.50;86.60
61374;DHT22;47242;48.158;-1.586;2024-01-25T15:59:21;14.50;86.60
61374;DHT22;47242;48.158;-1.586;2024-01-25T16:01:47;14.50;86.70
61374;DHT22;47242;48.158;-1.586;2024-01-25T16:04:13;14.50;86.70
61374;DHT22;47242;48.158;-1.586;2024-01-25T16:06:38;14.40;86.70
61374;DHT22;47242;48.158;-1.586;2024-01-25T16:09:04;14.40;86.70
61374;DHT22;47242;48.158;-1.586;2024-01-25T16:11:30;14.40;86.70
61374;DHT22;47242;48.158;-1.586;2024-01-25T16:13:56;14.40;86.70
61374;DHT22;47242;48.158;-1.586;2024-01-25T16:16:21;14.30;86.80
61374;DHT22;47242;48.158;-1.586;2024-01-25T16:18:47;14.30;86.90
61374;DHT22;47242;48.158;-1.586;2024-01-25T16:21:12;14.30;86.80
61374;DHT22;47242;48.158;-1.586;2024-01-25T16:23:38;14.30;86.90
61374;DHT22;47242;48.158;-1.586;2024-01-25T16:26:04;14.30;86.90
61374;DHT22;47242;48.158;-1.586;2024-01-25T16:28:29;14.20;86.90
61374;DHT22;47242;48.158;-1.586;2024-01-25T16:30:55;14.20;86.80
61374;DHT22;47242;48.158;-1.586;2024-01-25T16:33:21;14.20;86.70
61374;DHT22;47242;48.158;-1.586;2024-01-25T16:35:46;14.20;86.70
61374;DHT22;47242;48.158;-1.586;2024-01-25T16:38:12;14.10;86.60
61374;DHT22;47242;48.158;-1.586;2024-01-25T16:40:38;14.00;86.70
61374;DHT22;47242;48.158;-1.586;2024-01-25T16:43:03;14.00;86.60
61374;DHT22;47242;48.158;-1.586;2024-01-25T16:45:29;14.00;86.80
61374;DHT22;47242;48.158;-1.586;2024-01-25T16:47:55;14.00;86.70
61374;DHT22;47242;48.158;-1.586;2024-01-25T16:50:20;14.00;86.80
61374;DHT22;47242;48.158;-1.586;2024-01-25T16:52:46;13.90;86.70
61374;DHT22;47242;48.158;-1.586;2024-01-25T16:55:13;13.90;86.70
61374;DHT22;47242;48.158;-1.586;2024-01-25T16:57:39;14.00;86.70
61374;DHT22;47242;48.158;-1.586;2024-01-25T17:00:05;14.00;86.70
61374;DHT22;47242;48.158;-1.586;2024-01-25T17:02:31;13.90;86.60
61374;DHT22;47242;48.158;-1.586;2024-01-25T17:04:57;13.90;86.70
61374;DHT22;47242;48.158;-1.586;2024-01-25T17:07:23;13.90;86.60
61374;DHT22;47242;48.158;-1.586;2024-01-25T17:09:48;13.80;86.60
61374;DHT22;47242;48.158;-1.586;2024-01-25T17:12:14;13.80;86.60
61374;DHT22;47242;48.158;-1.586;2024-01-25T17:14:40;13.70;86.80
61374;DHT22;47242;48.158;-1.586;2024-01-25T17:17:07;13.70;86.70
61374;DHT22;47242;48.158;-1.586;2024-01-25T17:19:35;13.60;86.70
61374;DHT22;47242;48.158;-1.586;2024-01-25T17:22:00;13.60;87.00
61374;DHT22;47242;48.158;-1.586;2024-01-25T17:24:26;13.50;87.10
61374;DHT22;47242;48.158;-1.586;2024-01-25T17:26:51;13.50;87.10
61374;DHT22;47242;48.158;-1.586;2024-01-25T17:29:17;13.50;87.10
61374;DHT22;47242;48.158;-1.586;2024-01-25T17:31:42;13.40;87.10
61374;DHT22;47242;48.158;-1.586;2024-01-25T17:34:08;13.30;87.30
61374;DHT22;47242;48.158;-1.586;2024-01-25T17:36:34;13.30;87.30
61374;DHT22;47242;48.158;-1.586;2024-01-25T17:38:59;13.30;87.40
61374;DHT22;47242;48.158;-1.586;2024-01-25T17:41:25;13.30;87.30
61374;DHT22;47242;48.158;-1.586;2024-01-25T17:43:51;13.20;87.40
61374;DHT22;47242;48.158;-1.586;2024-01-25T17:46:16;13.20;87.60
61374;DHT22;47242;48.158;-1.586;2024-01-25T17:48:42;13.10;87.70
61374;DHT22;47242;48.158;-1.586;2024-01-25T17:51:07;13.10;87.80
61374;DHT22;47242;48.158;-1.586;2024-01-25T17:53:34;13.10;87.80
61374;DHT22;47242;48.158;-1.586;2024-01-25T17:56:00;13.10;87.70
61374;DHT22;47242;48.158;-1.586;2024-01-25T17:58:26;13.10;87.80
61374;DHT22;47242;48.158;-1.586;2024-01-25T18:00:52;13.00;87.80
61374;DHT22;47242;48.158;-1.586;2024-01-25T18:03:18;13.00;88.00
61374;DHT22;47242;48.158;-1.586;2024-01-25T18:05:44;12.90;88.20
61374;DHT22;47242;48.158;-1.586;2024-01-25T18:08:10;12.80;88.20
61374;DHT22;47242;48.158;-1.586;2024-01-25T18:10:35;12.80;88.30
61374;DHT22;47242;48.158;-1.586;2024-01-25T18:13:01;12.90;88.40
61374;DHT22;47242;48.158;-1.586;2024-01-25T18:15:27;12.80;88.50
61374;DHT22;47242;48.158;-1.586;2024-01-25T18:17:52;12.80;88.50
61374;DHT22;47242;48.158;-1.586;2024-01-25T18:20:18;12.80;88.40
61374;DHT22;47242;48.158;-1.586;2024-01-25T18:22:44;12.80;88.60
61374;DHT22;47242;48.158;-1.586;2024-01-25T18:25:09;12.80;88.60
61374;DHT22;47242;48.158;-1.586;2024-01-25T18:27:35;12.80;88.60
61374;DHT22;47242;48.158;-1.586;2024-01-25T18:30:00;12.70;88.50
61374;DHT22;47242;48.158;-1.586;2024-01-25T18:32:26;12.70;88.70
61374;DHT22;47242;48.158;-1.586;2024-01-25T18:34:52;12.80;88.70
61374;DHT22;47242;48.158;-1.586;2024-01-25T18:37:18;12.80;88.80
61374;DHT22;47242;48.158;-1.586;2024-01-25T18:39:43;12.80;88.80
61374;DHT22;47242;48.158;-1.586;2024-01-25T18:42:09;12.90;88.80
61374;DHT22;47242;48.158;-1.586;2024-01-25T18:44:41;12.90;88.90
61374;DHT22;47242;48.158;-1.586;2024-01-25T18:47:07;12.90;88.80
61374;DHT22;47242;48.158;-1.586;2024-01-25T18:49:36;13.00;88.80
61374;DHT22;47242;48.158;-1.586;2024-01-25T18:52:03;13.00;88.70
61374;DHT22;47242;48.158;-1.586;2024-01-25T18:54:29;13.00;88.80
61374;DHT22;47242;48.158;-1.586;2024-01-25T18:56:55;12.90;88.90
61374;DHT22;47242;48.158;-1.586;2024-01-25T18:59:21;12.90;88.90
61374;DHT22;47242;48.158;-1.586;2024-01-25T19:01:52;12.80;89.00
61374;DHT22;47242;48.158;-1.586;2024-01-25T19:04:19;12.80;89.00
61374;DHT22;47242;48.158;-1.586;2024-01-25T19:06:52;12.70;89.20
61374;DHT22;47242;48.158;-1.586;2024-01-25T19:09:18;12.70;89.40
61374;DHT22;47242;48.158;-1.586;2024-01-25T19:11:43;12.60;89.60
61374;DHT22;47242;48.158;-1.586;2024-01-25T19:14:09;12.60;89.50
61374;DHT22;47242;48.158;-1.586;2024-01-25T19:16:34;12.50;89.60
61374;DHT22;47242;48.158;-1.586;2024-01-25T19:19:00;12.50;89.70
61374;DHT22;47242;48.158;-1.586;2024-01-25T19:21:26;12.50;89.70
61374;DHT22;47242;48.158;-1.586;2024-01-25T19:23:51;12.40;89.80
61374;DHT22;47242;48.158;-1.586;2024-01-25T19:26:17;12.50;89.80
61374;DHT22;47242;48.158;-1.586;2024-01-25T19:28:42;12.40;89.80
61374;DHT22;47242;48.158;-1.586;2024-01-25T19:31:09;12.40;89.60
61374;DHT22;47242;48.158;-1.586;2024-01-25T19:33:36;12.40;89.70
61374;DHT22;47242;48.158;-1.586;2024-01-25T19:36:01;12.40;89.70
61374;DHT22;47242;48.158;-1.586;2024-01-25T19:38:27;12.40;89.60
61374;DHT22;47242;48.158;-1.586;2024-01-25T19:40:53;12.30;89.60
61374;DHT22;47242;48.158;-1.586;2024-01-25T19:43:18;12.40;89.60
61374;DHT22;47242;48.158;-1.586;2024-01-25T19:45:44;12.50;89.60
61374;DHT22;47242;48.158;-1.586;2024-01-25T19:48:09;12.60;89.50
61374;DHT22;47242;48.158;-1.586;2024-01-25T19:50:35;12.60;89.40
61374;DHT22;47242;48.158;-1.586;2024-01-25T19:53:03;12.70;89.30
61374;DHT22;47242;48.158;-1.586;2024-01-25T19:55:31;12.70;89.40
61374;DHT22;47242;48.158;-1.586;2024-01-25T19:57:58;12.70;89.60
61374;DHT22;47242;48.158;-1.586;2024-01-25T20:00:24;12.80;89.50
61374;DHT22;47242;48.158;-1.586;2024-01-25T20:02:50;12.80;89.50
61374;DHT22;47242;48.158;-1.586;2024-01-25T20:05:16;12.80;89.60
61374;DHT22;47242;48.158;-1.586;2024-01-25T20:07:42;12.80;89.40
61374;DHT22;47242;48.158;-1.586;2024-01-25T20:10:08;12.80;89.50
61374;DHT22;47242;48.158;-1.586;2024-01-25T20:12:35;12.80;89.40
61374;DHT22;47242;48.158;-1.586;2024-01-25T20:15:03;12.80;89.30
61374;DHT22;47242;48.158;-1.586;2024-01-25T20:17:29;12.80;89.30
61374;DHT22;47242;48.158;-1.586;2024-01-25T20:19:56;12.70;89.30
61374;DHT22;47242;48.158;-1.586;2024-01-25T20:22:22;12.70;89.30
61374;DHT22;47242;48.158;-1.586;2024-01-25T20:24:47;12.70;89.40
61374;DHT22;47242;48.158;-1.586;2024-01-25T20:27:13;12.60;89.30
61374;DHT22;47242;48.158;-1.586;2024-01-25T20:29:39;12.60;89.30
61374;DHT22;47242;48.158;-1.586;2024-01-25T20:32:05;12.50;89.30
61374;DHT22;47242;48.158;-1.586;2024-01-25T20:34:30;12.50;89.40
61374;DHT22;47242;48.158;-1.586;2024-01-25T20:36:58;12.50;89.50
61374;DHT22;47242;48.158;-1.586;2024-01-25T20:39:24;12.50;89.50
61374;DHT22;47242;48.158;-1.586;2024-01-25T20:41:50;12.40;89.40